Time;durP1;ratioP1;P1;durP2;ratioP2;P2;SDS_P1;SDS_P2;PMS_P1;PMS_P2;Temp;Humidity;BMP_temperature;BMP_pressure;BME280_temperature;BME280_humidity;BME280_pressure;Samples;Min_cycle;Max_cycle;Signal;HPM_P1;HPM_P2
2023/02/03 00:00:02;;;;;;;2.07;1.60;;;;;;;6.09;100.00;99417.09;4973165;28;20255;-78
2023/02/03 00:02:28;;;;;;;2.40;1.40;;;;;;;6.12;100.00;99422.25;4973110;28;20213;-78
2023/02/03 00:04:55;;;;;;;2.90;1.40;;;;;;;6.11;100.00;99417.91;4972044;28;20217;-78
2023/02/03 00:07:22;;;;;;;3.37;1.00;;;;;;;6.12;100.00;99409.13;4973313;28;20251;-78
2023/02/03 00:09:50;;;;;;;1.70;1.10;;;;;;;6.10;100.00;99403.06;4973084;28;20209;-78
2023/02/03 00:12:16;;;;;;;2.33;1.10;;;;;;;6.08;100.00;99404.91;4973215;28;20224;-78
2023/02/03 00:14:43;;;;;;;1.40;1.10;;;;;;;6.06;100.00;99405.84;4973458;28;20207;-78
2023/02/03 00:17:09;;;;;;;2.47;1.03;;;;;;;6.08;100.00;99410.16;4972789;28;20339;-78
2023/02/03 00:19:36;;;;;;;2.10;1.10;;;;;;;6.09;100.00;99422.34;4972766;28;20242;-78
2023/02/03 00:22:02;;;;;;;1.37;1.10;;;;;;;6.12;100.00;99414.38;4973175;28;20222;-78
2023/02/03 00:24:29;;;;;;;2.50;1.20;;;;;;;6.08;100.00;99409.28;4973379;28;20236;-78
2023/02/03 00:26:57;;;;;;;1.70;1.10;;;;;;;6.10;100.00;99408.31;4973311;28;20315;-78
2023/02/03 00:29:24;;;;;;;1.83;0.90;;;;;;;6.09;100.00;99414.47;4972767;28;20213;-78
2023/02/03 00:31:51;;;;;;;2.10;1.00;;;;;;;6.12;100.00;99406.50;4973315;28;20217;-78
2023/02/03 00:34:18;;;;;;;3.63;1.33;;;;;;;6.11;100.00;99404.78;4973026;28;20705;-78
2023/02/03 00:36:45;;;;;;;2.03;1.00;;;;;;;6.13;100.00;99405.63;4973256;28;20244;-78
2023/02/03 00:39:12;;;;;;;2.20;1.10;;;;;;;6.16;100.00;99413.38;4972746;28;20248;-78
2023/02/03 00:41:38;;;;;;;1.33;1.00;;;;;;;6.13;100.00;99424.00;4973161;28;20229;-78
2023/02/03 00:44:06;;;;;;;1.13;1.00;;;;;;;6.12;100.00;99426.66;4973148;28;20220;-78
2023/02/03 00:46:34;;;;;;;1.27;1.07;;;;;;;6.16;100.00;99426.50;4972829;28;20234;-78
2023/02/03 00:49:01;;;;;;;0.90;0.90;;;;;;;6.14;100.00;99432.72;4972610;28;20221;-78
2023/02/03 00:51:28;;;;;;;1.30;0.80;;;;;;;6.13;100.00;99431.88;4973130;28;20715;-78
2023/02/03 00:53:54;;;;;;;1.10;1.00;;;;;;;6.10;100.00;99434.56;4973134;28;20210;-78
2023/02/03 00:56:21;;;;;;;1.43;0.90;;;;;;;6.14;100.00;99430.09;4972821;28;20217;-78
2023/02/03 00:58:47;;;;;;;1.23;0.90;;;;;;;6.15;100.00;99427.41;4972813;28;20575;-78
2023/02/03 01:01:15;;;;;;;0.87;0.80;;;;;;;6.13;100.00;99421.38;4973137;28;20217;-77
2023/02/03 01:03:41;;;;;;;0.87;0.87;;;;;;;6.19;100.00;99418.56;4972467;28;20212;-79
2023/02/03 01:06:10;;;;;;;1.63;0.90;;;;;;;6.13;100.00;99426.63;4966703;28;20210;-78
2023/02/03 01:08:37;;;;;;;1.90;0.90;;;;;;;6.13;100.00;99420.50;4973015;28;20215;-77
2023/02/03 01:11:07;;;;;;;1.63;0.83;;;;;;;6.13;100.00;99423.13;4973102;28;20237;-77
2023/02/03 01:13:33;;;;;;;3.30;1.77;;;;;;;6.21;100.00;99415.84;4973502;28;20220;-78
2023/02/03 01:16:00;;;;;;;2.33;1.00;;;;;;;6.18;100.00;99389.72;4973024;28;20225;-78
2023/02/03 01:18:28;;;;;;;2.27;1.10;;;;;;;6.15;100.00;99380.16;4973335;28;20230;-79
2023/02/03 01:20:54;;;;;;;1.67;0.90;;;;;;;6.21;100.00;99382.59;4972979;28;20214;-79
2023/02/03 01:23:21;;;;;;;1.57;1.00;;;;;;;6.19;100.00;99394.06;4973083;28;20221;-79
2023/02/03 01:25:47;;;;;;;3.37;1.00;;;;;;;6.18;100.00;99395.81;4973130;28;20207;-79
2023/02/03 01:28:14;;;;;;;3.00;1.07;;;;;;;6.23;100.00;99387.81;4974729;28;20233;-78
2023/02/03 01:30:40;;;;;;;1.23;1.00;;;;;;;6.13;100.00;99397.75;4976976;28;20225;-78
2023/02/03 01:33:07;;;;;;;1.73;1.27;;;;;;;6.11;100.00;99390.81;4977110;28;20213;-78
2023/02/03 01:35:35;;;;;;;0.90;0.90;;;;;;;6.19;100.00;99387.06;4977018;28;20213;-79
2023/02/03 01:38:01;;;;;;;1.30;1.20;;;;;;;6.16;100.00;99375.78;4976321;28;20283;-78
2023/02/03 01:40:28;;;;;;;3.00;1.27;;;;;;;6.14;100.00;99375.84;4975855;28;20244;-78
2023/02/03 01:42:54;;;;;;;0.90;0.90;;;;;;;6.11;100.00;99381.16;4976082;28;20214;-78
2023/02/03 01:45:21;;;;;;;1.70;1.10;;;;;;;6.15;100.00;99384.53;4976552;28;20214;-79
2023/02/03 01:47:52;;;;;;;1.73;1.40;;;;;;;6.15;100.00;99389.78;4976249;28;20241;-79
2023/02/03 01:50:20;;;;;;;2.50;1.27;;;;;;;6.15;100.00;99385.41;4976159;28;20222;-79
2023/02/03 01:52:52;;;;;;;3.63;1.60;;;;;;;6.12;100.00;99396.00;4976208;28;20207;-79
2023/02/03 01:55:23;;;;;;;2.07;1.40;;;;;;;6.18;100.00;99393.19;4976137;28;20222;-79
2023/02/03 01:57:53;;;;;;;1.97;1.40;;;;;;;6.17;100.00;99394.09;4976112;28;20245;-79
2023/02/03 02:00:20;;;;;;;2.80;1.30;;;;;;;6.16;100.00;99391.53;4974687;28;20245;-79
2023/02/03 02:02:48;;;;;;;3.00;1.33;;;;;;;6.16;100.00;99376.63;4973151;28;20237;-79
2023/02/03 02:05:23;;;;;;;1.80;1.70;;;;;;;6.20;100.00;99375.63;4972765;28;20210;-79
2023/02/03 02:07:51;;;;;;;2.77;1.97;;;;;;;6.19;100.00;99370.44;4975348;28;20614;-79
2023/02/03 02:10:18;;;;;;;2.40;1.70;;;;;;;6.22;100.00;99360.69;4975431;28;20688;-79
2023/02/03 02:12:44;;;;;;;3.00;1.70;;;;;;;6.28;100.00;99343.91;4976265;28;20221;-79
2023/02/03 02:15:12;;;;;;;2.10;1.70;;;;;;;6.31;100.00;99321.03;4975979;28;20213;-79
2023/02/03 02:18:05;;;;;;;3.30;1.43;;;;;;;6.31;100.00;99301.78;4975477;28;20242;-78
2023/02/03 02:20:41;;;;;;;2.90;1.50;;;;;;;6.33;100.00;99287.69;4974868;28;20240;-79
2023/02/03 02:23:31;;;;;;;2.10;1.43;;;;;;;6.30;100.00;99303.53;4975329;28;20721;-79
2023/02/03 02:26:28;;;;;;;3.10;1.67;;;;;;;6.20;100.00;99304.75;4975251;28;20207;-79
2023/02/03 02:29:19;;;;;;;2.63;1.53;;;;;;;6.17;100.00;99312.72;4974709;28;20214;-78
2023/02/03 02:32:02;;;;;;;4.23;1.40;;;;;;;6.21;100.00;99314.34;4975046;28;20225;-79
2023/02/03 02:34:40;;;;;;;2.17;1.50;;;;;;;6.18;100.00;99301.31;4974997;28;20226;-79
2023/02/03 02:37:21;;;;;;;2.40;1.40;;;;;;;6.16;100.00;99287.38;4974937;28;20233;-78
2023/02/03 02:39:55;;;;;;;1.30;1.20;;;;;;;6.15;100.00;99277.81;4974518;28;20241;-78
2023/02/03 02:42:28;;;;;;;2.40;1.60;;;;;;;6.12;100.00;99267.38;4974851;28;20222;-78
2023/02/03 02:45:01;;;;;;;3.53;1.60;;;;;;;6.09;100.00;99271.88;4974863;28;20211;-77
2023/02/03 02:47:29;;;;;;;2.67;1.40;;;;;;;6.03;100.00;99307.06;4974653;28;20757;-78
2023/02/03 02:50:01;;;;;;;2.03;1.60;;;;;;;6.09;100.00;99316.50;4974699;28;20230;-79
2023/02/03 02:52:31;;;;;;;2.73;1.40;;;;;;;6.17;100.00;99314.50;4974642;28;20654;-79
2023/02/03 02:55:05;;;;;;;1.57;1.40;;;;;;;6.19;100.00;99308.31;4974567;28;20210;-79
2023/02/03 02:57:36;;;;;;;3.67;1.50;;;;;;;6.20;100.00;99311.75;4974604;28;20245;-79
2023/02/03 03:00:04;;;;;;;2.00;1.27;;;;;;;6.18;100.00;99319.69;4974237;28;20234;-79
2023/02/03 03:02:36;;;;;;;1.80;1.60;;;;;;;6.25;100.00;99317.72;4974556;28;20835;-79
2023/02/03 03:05:07;;;;;;;1.80;1.27;;;;;;;6.28;100.00;99301.88;4974678;28;20218;-79
2023/02/03 03:07:37;;;;;;;2.27;1.07;;;;;;;6.36;100.00;99282.31;4972967;28;20242;-79
2023/02/03 03:10:10;;;;;;;2.40;1.33;;;;;;;6.36;100.00;99279.69;4974214;28;20298;-79
2023/02/03 03:12:42;;;;;;;2.33;1.37;;;;;;;6.34;100.00;99292.03;4974203;28;20237;-79
2023/02/03 03:15:12;;;;;;;3.17;1.37;;;;;;;6.36;100.00;99300.69;4974459;28;20215;-79
2023/02/03 03:17:42;;;;;;;1.47;0.90;;;;;;;6.38;100.00;99284.88;4974459;28;20258;-79
2023/02/03 03:20:15;;;;;;;1.10;1.00;;;;;;;6.40;100.00;99291.81;4974107;28;20231;-79
2023/02/03 03:22:47;;;;;;;1.50;1.10;;;;;;;6.40;100.00;99280.47;4974371;28;20214;-79
2023/02/03 03:25:17;;;;;;;1.37;0.80;;;;;;;6.38;100.00;99283.13;4974184;28;20222;-79
2023/02/03 03:27:49;;;;;;;1.40;0.97;;;;;;;6.36;100.00;99295.44;4974350;28;20238;-79
2023/02/03 03:30:20;;;;;;;1.67;1.27;;;;;;;6.32;100.00;99313.97;4974092;28;20203;-76
2023/02/03 03:32:48;;;;;;;1.83;1.20;;;;;;;6.40;100.00;99312.81;4974342;28;20207;-78
2023/02/03 03:35:16;;;;;;;2.23;1.30;;;;;;;6.33;100.00;99316.56;4974088;28;20221;-79
2023/02/03 03:37:46;;;;;;;1.20;1.10;;;;;;;6.35;100.00;99319.16;4973774;28;20240;-79
2023/02/03 03:40:20;;;;;;;1.57;1.00;;;;;;;6.38;100.00;99319.91;4973792;28;20227;-79
2023/02/03 03:42:52;;;;;;;1.13;0.97;;;;;;;6.33;100.00;99327.06;4974030;28;20684;-79
2023/02/03 03:45:25;;;;;;;1.20;1.00;;;;;;;6.29;100.00;99335.94;4974099;28;20215;-79
2023/02/03 03:47:58;;;;;;;1.13;1.00;;;;;;;6.29;100.00;99340.34;4973880;28;20239;-79
2023/02/03 03:50:28;;;;;;;1.30;1.00;;;;;;;6.25;100.00;99355.34;4972748;28;20206;-79
2023/02/03 03:52:57;;;;;;;1.17;0.83;;;;;;;6.28;100.00;99349.97;4973858;28;20217;-79
2023/02/03 03:55:27;;;;;;;1.13;0.80;;;;;;;6.24;100.00;99358.84;4973493;28;20218;-79
2023/02/03 03:57:58;;;;;;;1.10;1.00;;;;;;;6.26;100.00;99364.06;4973361;28;20257;-79
2023/02/03 04:00:29;;;;;;;1.37;0.87;;;;;;;6.26;100.00;99375.44;4973148;28;20234;-79
2023/02/03 04:03:01;;;;;;;1.23;0.90;;;;;;;6.30;100.00;99371.78;4973287;28;20207;-79
2023/02/03 04:05:28;;;;;;;1.17;0.70;;;;;;;6.32;100.00;99372.63;4973367;28;20214;-79
2023/02/03 04:07:54;;;;;;;1.00;0.90;;;;;;;6.33;100.00;99371.69;4972185;28;20236;-79
2023/02/03 04:10:27;;;;;;;1.07;0.93;;;;;;;6.34;100.00;99373.41;4972668;28;20211;-79
2023/02/03 04:12:53;;;;;;;1.27;0.90;;;;;;;6.35;100.00;99369.88;4973344;28;20221;-79
2023/02/03 04:15:20;;;;;;;0.80;0.80;;;;;;;6.38;100.00;99377.66;4973117;28;20210;-79
2023/02/03 04:17:46;;;;;;;0.77;0.70;;;;;;;6.35;100.00;99385.63;4973036;28;20721;-77
2023/02/03 04:20:15;;;;;;;1.87;0.80;;;;;;;6.36;100.00;99387.34;4972666;28;20237;-79
2023/02/03 04:22:42;;;;;;;0.77;0.73;;;;;;;6.31;100.00;99380.53;4973203;28;20218;-80
2023/02/03 04:25:09;;;;;;;2.27;0.80;;;;;;;6.27;100.00;99386.78;4973065;28;20221;-79
2023/02/03 04:27:36;;;;;;;1.73;0.90;;;;;;;6.18;100.00;99390.56;4972950;28;20249;-77
2023/02/03 04:30:02;;;;;;;1.73;0.80;;;;;;;6.08;100.00;99378.66;4972684;28;20214;-78
2023/02/03 04:32:29;;;;;;;1.40;0.97;;;;;;;6.03;100.00;99363.94;4973033;28;20209;-79
2023/02/03 04:34:56;;;;;;;1.03;0.80;;;;;;;6.01;100.00;99358.75;4972940;28;20211;-79
2023/02/03 04:37:25;;;;;;;0.80;0.80;;;;;;;6.00;100.00;99358.81;4972968;28;20242;-79
2023/02/03 04:39:52;;;;;;;3.23;0.90;;;;;;;5.98;100.00;99358.84;4973111;28;20231;-79
2023/02/03 04:42:18;;;;;;;1.23;0.80;;;;;;;5.99;100.00;99370.22;4972872;28;20579;-79
2023/02/03 04:44:45;;;;;;;1.00;0.90;;;;;;;5.89;100.00;99360.91;4972975;28;20392;-78
2023/02/03 04:47:11;;;;;;;0.70;0.70;;;;;;;5.90;100.00;99366.09;4972815;28;20237;-79
2023/02/03 04:49:38;;;;;;;1.07;0.70;;;;;;;5.86;100.00;99377.59;4972503;28;20218;-79
2023/02/03 04:52:05;;;;;;;2.40;1.00;;;;;;;5.82;100.00;99375.13;4972669;28;20711;-79
2023/02/03 04:54:33;;;;;;;0.97;0.77;;;;;;;5.82;100.00;99370.75;4972684;28;20214;-79
2023/02/03 04:56:59;;;;;;;1.33;0.80;;;;;;;5.81;100.00;99348.00;4990854;23;20240;-80
2023/02/03 04:59:26;;;;;;;1.20;1.10;;;;;;;5.78;100.00;99342.84;5010803;28;20215;-80
2023/02/03 05:01:53;;;;;;;1.90;0.73;;;;;;;5.76;100.00;99339.41;5010758;28;20212;-80
2023/02/03 05:04:19;;;;;;;1.00;0.70;;;;;;;5.74;100.00;99338.59;5011348;28;20216;-81
2023/02/03 05:06:46;;;;;;;1.60;0.80;;;;;;;5.70;100.00;99341.34;5011430;28;20227;-80
2023/02/03 05:09:12;;;;;;;1.33;0.90;;;;;;;5.70;100.00;99334.34;5002826;28;20212;-80
2023/02/03 05:11:40;;;;;;;0.67;0.63;;;;;;;5.72;100.00;99353.53;5009746;28;20209;-80
2023/02/03 05:14:07;;;;;;;0.93;0.70;;;;;;;5.72;100.00;99364.00;5011197;28;20216;-81
2023/02/03 05:16:33;;;;;;;1.90;0.70;;;;;;;5.67;100.00;99367.69;5011341;28;20219;-81
2023/02/03 05:19:00;;;;;;;0.70;0.70;;;;;;;5.68;100.00;99367.63;5010937;28;20212;-80
2023/02/03 05:21:26;;;;;;;0.80;0.80;;;;;;;5.70;100.00;99378.94;5011270;28;20323;-80
2023/02/03 05:23:53;;;;;;;0.73;0.73;;;;;;;5.74;100.00;99366.59;5010967;28;20213;-80
2023/02/03 05:26:19;;;;;;;0.60;0.60;;;;;;;5.71;100.00;99362.31;5011190;28;20235;-80
2023/02/03 05:28:47;;;;;;;1.27;0.60;;;;;;;5.68;100.00;99362.38;5010905;28;20224;-80
2023/02/03 05:31:14;;;;;;;1.07;0.80;;;;;;;5.71;100.00;99364.91;5010928;28;20212;-80
2023/02/03 05:33:40;;;;;;;7.00;1.57;;;;;;;5.71;100.00;99370.16;5010948;28;20213;-80
2023/02/03 05:36:08;;;;;;;3.37;0.80;;;;;;;5.67;100.00;99363.28;5010941;28;20211;-80
2023/02/03 05:38:34;;;;;;;1.10;1.00;;;;;;;5.64;100.00;99366.03;5010805;28;20232;-80
2023/02/03 05:44:00;;;;;;;2.07;0.93;;;;;;;5.64;100.00;99371.25;4950359;29;20293;-80
2023/02/03 05:46:27;;;;;;;1.20;0.83;;;;;;;5.63;100.00;99366.91;4969832;28;20221;-80
2023/02/03 05:48:53;;;;;;;2.50;1.20;;;;;;;5.64;100.00;99366.03;5010378;28;20231;-80
2023/02/03 05:51:20;;;;;;;2.57;1.03;;;;;;;5.64;100.00;99376.50;5011239;28;20331;-80
2023/02/03 05:53:46;;;;;;;1.90;1.30;;;;;;;5.70;100.00;99371.09;5010876;28;20217;-80
2023/02/03 05:56:13;;;;;;;2.53;1.17;;;;;;;5.70;100.00;99350.09;5010718;28;20624;-81
2023/02/03 05:58:39;;;;;;;1.80;1.37;;;;;;;5.73;100.00;99349.97;5010659;28;20624;-80
2023/02/03 06:01:07;;;;;;;1.73;1.37;;;;;;;5.75;100.00;99350.78;5010496;28;20617;-80
2023/02/03 06:03:34;;;;;;;1.43;1.33;;;;;;;5.75;100.00;99349.94;5010642;28;20209;-81
2023/02/03 06:06:00;;;;;;;2.00;1.20;;;;;;;5.78;100.00;99361.19;5010874;28;20213;-81
2023/02/03 06:08:27;;;;;;;4.70;1.10;;;;;;;5.79;100.00;99355.03;5010119;28;20236;-80
2023/02/03 06:10:58;;;;;;;3.70;1.33;;;;;;;5.77;100.00;99340.25;4997608;28;20210;-81
2023/02/03 06:13:24;;;;;;;3.50;1.10;;;;;;;5.74;100.00;99335.13;4991258;28;20703;-81
2023/02/03 06:15:51;;;;;;;1.23;1.10;;;;;;;5.74;100.00;99335.97;4994541;28;20206;-81
2023/02/03 06:18:19;;;;;;;2.80;1.20;;;;;;;5.74;100.00;99330.72;4994491;28;20234;-80
2023/02/03 06:20:46;;;;;;;1.73;1.20;;;;;;;5.74;100.00;99324.63;4994381;28;20242;-80
2023/02/03 06:23:12;;;;;;;1.57;1.30;;;;;;;5.75;100.00;99342.91;4994505;28;20213;-80
2023/02/03 06:25:39;;;;;;;3.17;1.47;;;;;;;5.78;100.00;99344.59;4994462;28;20224;-80
2023/02/03 06:28:05;;;;;;;2.07;1.43;;;;;;;5.76;100.00;99343.78;4994358;28;20237;-80
2023/02/03 06:30:32;;;;;;;1.40;1.30;;;;;;;5.77;100.00;99350.75;4994024;28;20220;-80
2023/02/03 06:32:58;;;;;;;2.47;1.23;;;;;;;5.77;100.00;99340.25;4994299;28;20214;-80
2023/02/03 06:35:26;;;;;;;1.80;1.30;;;;;;;5.78;100.00;99342.84;4994590;28;20217;-80
2023/02/03 06:37:53;;;;;;;2.40;1.33;;;;;;;5.81;100.00;99352.41;4994311;28;20245;-80
2023/02/03 06:40:19;;;;;;;5.43;1.40;;;;;;;5.78;100.00;99350.72;4993909;28;20252;-80
2023/02/03 06:42:46;;;;;;;2.23;1.30;;;;;;;5.79;100.00;99349.81;4994265;28;20217;-80
2023/02/03 06:45:13;;;;;;;1.93;1.30;;;;;;;5.77;100.00;99346.38;4994000;28;20219;-80
2023/02/03 06:47:41;;;;;;;1.13;1.07;;;;;;;5.76;100.00;99334.16;4994440;28;20241;-80
2023/02/03 06:50:08;;;;;;;1.50;1.13;;;;;;;5.73;100.00;99318.50;4993671;28;20214;-81
2023/02/03 06:52:36;;;;;;;1.40;1.20;;;;;;;5.65;100.00;99315.28;4994109;28;20212;-81
2023/02/03 06:55:03;;;;;;;1.17;1.07;;;;;;;5.62;100.00;99325.84;4994086;28;20213;-80
2023/02/03 06:57:29;;;;;;;2.30;1.20;;;;;;;5.61;100.00;99329.38;4993671;28;20620;-81
2023/02/03 06:59:56;;;;;;;1.57;1.40;;;;;;;5.61;100.00;99308.41;4994118;28;20221;-80
2023/02/03 07:02:23;;;;;;;1.40;1.20;;;;;;;5.59;100.00;99312.84;4994050;28;20213;-80
2023/02/03 07:04:50;;;;;;;2.07;1.53;;;;;;;5.58;100.00;99310.25;4994137;28;20211;-81
2023/02/03 07:07:16;;;;;;;1.90;1.70;;;;;;;5.53;100.00;99313.03;4993790;28;20243;-81
2023/02/03 07:09:44;;;;;;;2.17;1.40;;;;;;;5.51;100.00;99306.94;4995863;28;20694;-81
2023/02/03 07:12:11;;;;;;;2.37;1.20;;;;;;;5.51;100.00;99303.50;5000195;28;20624;-81
2023/02/03 07:14:38;;;;;;;3.07;1.20;;;;;;;5.53;100.00;99310.41;4993645;28;20217;-81
2023/02/03 07:17:05;;;;;;;1.70;1.20;;;;;;;5.59;100.00;99312.84;4993474;28;20264;-81
2023/02/03 07:19:31;;;;;;;1.80;1.10;;;;;;;5.62;100.00;99304.88;4993405;28;20210;-82
2023/02/03 07:21:58;;;;;;;1.60;1.30;;;;;;;5.60;100.00;99309.31;4993524;28;20233;-82
2023/02/03 07:24:25;;;;;;;2.57;1.30;;;;;;;5.64;100.00;99313.56;4993641;28;20215;-82
2023/02/03 07:26:53;;;;;;;1.97;1.23;;;;;;;5.66;100.00;99319.63;4992164;28;20296;-82
2023/02/03 07:29:19;;;;;;;1.27;1.03;;;;;;;5.70;100.00;99318.63;4993416;28;20590;-84
2023/02/03 07:31:46;;;;;;;1.43;1.07;;;;;;;5.67;100.00;99308.22;4993435;28;20232;-80
2023/02/03 07:34:12;;;;;;;1.67;0.90;;;;;;;5.72;100.00;99322.03;4993377;28;20221;-81
2023/02/03 07:36:40;;;;;;;1.83;1.10;;;;;;;5.71;100.00;99324.72;4993146;28;20223;-84
2023/02/03 07:39:06;;;;;;;1.30;1.10;;;;;;;5.76;100.00;99328.06;4992969;28;20609;-82
2023/02/03 07:41:33;;;;;;;3.10;1.20;;;;;;;5.73;100.00;99336.88;4992979;28;20230;-82
2023/02/03 07:44:01;;;;;;;1.23;1.13;;;;;;;5.72;100.00;99343.03;4993375;28;20209;-83
2023/02/03 07:46:27;;;;;;;2.00;1.03;;;;;;;5.75;100.00;99358.66;4993130;28;20677;-82
2023/02/03 07:48:54;;;;;;;1.20;1.10;;;;;;;5.77;100.00;99350.75;4992781;28;20240;-83
2023/02/03 07:51:20;;;;;;;1.90;1.10;;;;;;;5.75;100.00;99363.91;4993078;28;20239;-82
2023/02/03 07:53:47;;;;;;;1.30;1.00;;;;;;;5.77;100.00;99359.50;5006077;28;20299;-84
2023/02/03 07:56:13;;;;;;;2.77;1.83;;;;;;;5.75;100.00;99366.53;5012684;28;20216;-83
2023/02/03 07:58:40;;;;;;;1.70;1.40;;;;;;;5.75;100.00;99363.91;5012229;28;20608;-83
2023/02/03 08:01:13;;;;;;;1.37;1.10;;;;;;;5.71;100.00;99383.28;5012303;28;20243;-85
2023/02/03 08:03:39;;;;;;;1.57;1.00;;;;;;;5.75;100.00;99384.88;5012521;28;20216;-84
2023/02/03 08:06:06;;;;;;;1.73;1.30;;;;;;;5.79;100.00;99381.28;5011910;28;20868;-84
2023/02/03 08:08:33;;;;;;;3.67;1.47;;;;;;;5.79;100.00;99380.41;5011975;28;20248;-84
2023/02/03 08:10:59;;;;;;;4.10;1.60;;;;;;;5.78;100.00;99387.44;5008952;28;20216;-82
2023/02/03 08:13:26;;;;;;;2.10;1.30;;;;;;;5.85;100.00;99391.63;4997207;28;20478;-82
2023/02/03 08:15:53;;;;;;;1.20;1.03;;;;;;;5.85;100.00;99394.25;4992470;28;20206;-82
2023/02/03 08:18:21;;;;;;;1.63;1.37;;;;;;;5.87;100.00;99395.03;4992943;28;20236;-82
2023/02/03 08:20:47;;;;;;;1.57;1.20;;;;;;;5.94;100.00;99391.34;4992040;28;20357;-80
2023/02/03 08:23:14;;;;;;;1.53;1.43;;;;;;;5.94;100.00;99396.59;4992392;28;20265;-83
2023/02/03 08:25:41;;;;;;;3.67;1.30;;;;;;;5.99;100.00;99392.03;4992580;28;20216;-84
2023/02/03 08:28:07;;;;;;;3.43;1.83;;;;;;;5.97;100.00;99393.88;4992150;28;20230;-83
2023/02/03 08:30:34;;;;;;;2.67;1.43;;;;;;;5.97;100.00;99387.75;4992054;28;20205;-83
2023/02/03 08:33:01;;;;;;;2.20;1.70;;;;;;;5.99;100.00;99376.28;4992390;28;20213;-84
2023/02/03 08:35:28;;;;;;;3.80;1.60;;;;;;;5.99;100.00;99372.84;4992184;28;20221;-83
2023/02/03 08:37:55;;;;;;;1.73;1.43;;;;;;;6.03;100.00;99377.94;4992050;28;20256;-83
2023/02/03 08:40:22;;;;;;;2.23;1.10;;;;;;;6.08;100.00;99380.41;4991945;28;20565;-84
2023/02/03 08:42:49;;;;;;;2.00;1.40;;;;;;;6.09;100.00;99390.00;4992176;28;20238;-83
2023/02/03 08:45:16;;;;;;;1.67;1.40;;;;;;;6.15;100.00;99398.53;4992229;28;20236;-84
2023/02/03 08:47:42;;;;;;;3.63;1.60;;;;;;;6.28;100.00;99386.75;4991935;28;20226;-84
2023/02/03 08:50:10;;;;;;;1.50;1.40;;;;;;;6.42;100.00;99395.00;4991510;28;20596;-79
2023/02/03 08:52:38;;;;;;;1.93;1.40;;;;;;;6.41;100.00;99387.22;4990998;28;20555;-78
2023/02/03 08:55:05;;;;;;;3.30;1.60;;;;;;;6.38;100.00;99388.16;4990197;28;20216;-79
2023/02/03 08:57:33;;;;;;;1.83;1.57;;;;;;;6.36;100.00;99387.34;4990171;28;20241;-78
2023/02/03 09:00:00;;;;;;;2.53;1.53;;;;;;;6.43;100.00;99390.63;5006529;28;20212;-84
2023/02/03 09:02:27;;;;;;;2.93;1.30;;;;;;;6.55;100.00;99390.22;5008713;28;20228;-84
2023/02/03 09:04:53;;;;;;;1.50;1.37;;;;;;;6.74;100.00;99389.56;5005696;28;20307;-83
2023/02/03 09:07:20;;;;;;;2.97;1.33;;;;;;;6.82;100.00;99365.63;5009393;28;20299;-83
2023/02/03 09:09:47;;;;;;;3.83;1.37;;;;;;;6.92;100.00;99365.28;5009702;28;20225;-83
2023/02/03 09:12:14;;;;;;;2.53;1.30;;;;;;;6.96;100.00;99361.63;5009779;28;20205;-83
2023/02/03 09:14:41;;;;;;;1.67;1.30;;;;;;;6.92;100.00;99367.91;5009679;28;20217;-83
2023/02/03 09:17:08;;;;;;;1.70;1.60;;;;;;;6.98;100.00;99358.94;5009711;28;20232;-83
2023/02/03 09:19:34;;;;;;;1.30;1.03;;;;;;;6.94;100.00;99355.56;5009471;28;20753;-84
2023/02/03 09:22:01;;;;;;;2.13;1.13;;;;;;;6.99;100.00;99356.28;5009702;28;20938;-83
2023/02/03 09:24:27;;;;;;;1.90;1.03;;;;;;;7.08;100.00;99352.47;5009583;28;20240;-83
2023/02/03 09:26:55;;;;;;;1.67;1.20;;;;;;;7.12;100.00;99357.53;5009534;28;20636;-84
2023/02/03 09:29:22;;;;;;;2.43;1.10;;;;;;;7.16;100.00;99368.81;5009580;28;20216;-85
2023/02/03 09:31:51;;;;;;;1.47;1.20;;;;;;;7.19;100.00;99356.41;5009593;28;20212;-85
2023/02/03 09:34:18;;;;;;;1.80;1.10;;;;;;;7.21;100.00;99357.19;5009619;28;20216;-86
2023/02/03 09:36:44;;;;;;;2.87;1.47;;;;;;;7.28;100.00;99363.09;5009708;28;20209;-85
2023/02/03 09:39:11;;;;;;;2.57;1.47;;;;;;;7.34;100.00;99376.91;5009461;28;20622;-84
2023/02/03 09:41:54;;;;;;;1.57;0.87;;;;;;;7.44;100.00;99371.25;5009849;28;20225;-84
2023/02/03 09:44:28;;;;;;;1.03;0.93;;;;;;;7.45;100.00;99386.09;5009027;28;20206;-85
2023/02/03 09:46:58;;;;;;;5.37;1.27;;;;;;;7.46;100.00;99363.25;5009848;28;20269;-87
2023/02/03 09:49:38;;;;;;;1.60;0.90;;;;;;;7.45;100.00;99366.81;5011310;28;20214;-84
2023/02/03 09:52:11;;;;;;;1.27;0.60;;;;;;;7.43;100.00;99366.03;5013369;28;20582;-81
2023/02/03 09:54:42;;;;;;;1.33;0.80;;;;;;;7.45;100.00;99356.28;5013680;28;20215;-88
2023/02/03 09:57:19;;;;;;;2.23;0.90;;;;;;;7.44;100.00;99351.94;5013298;28;20241;-87
2023/02/03 09:59:47;;;;;;;0.90;0.80;;;;;;;7.54;100.00;99345.44;5013546;28;20209;-84
2023/02/03 10:02:27;;;;;;;0.70;0.63;;;;;;;7.70;100.00;99355.31;5013914;28;20759;-84
2023/02/03 10:04:59;;;;;;;0.80;0.70;;;;;;;7.80;100.00;99342.66;5014284;28;20219;-84
2023/02/03 10:07:34;;;;;;;0.90;0.60;;;;;;;7.82;100.00;99331.16;5005655;28;20319;-84
2023/02/03 10:10:13;;;;;;;0.93;0.73;;;;;;;7.86;100.00;99329.25;5004211;28;20216;-83
2023/02/03 10:12:59;;;;;;;1.10;0.80;;;;;;;7.87;100.00;99346.75;4995437;28;20213;-85
2023/02/03 10:15:57;;;;;;;0.97;0.80;;;;;;;7.85;100.00;99356.50;4993568;28;20210;-84
2023/02/03 10:18:28;;;;;;;0.97;0.80;;;;;;;7.83;100.00;99359.19;4993645;28;20227;-84
2023/02/03 10:20:59;;;;;;;0.80;0.70;;;;;;;7.90;100.00;99359.81;4993312;28;20677;-88
2023/02/03 10:23:30;;;;;;;1.00;0.90;;;;;;;8.00;100.00;99366.41;4993559;28;20580;-80
2023/02/03 10:26:01;;;;;;;0.73;0.73;;;;;;;7.89;100.00;99360.75;5007881;28;20213;-82
2023/02/03 10:28:30;;;;;;;0.50;0.50;;;;;;;7.87;100.00;99355.53;5013661;28;20247;-82
2023/02/03 10:31:00;;;;;;;1.20;0.80;;;;;;;7.81;100.00;99370.69;5013523;28;20221;-82
2023/02/03 10:33:28;;;;;;;1.27;0.80;;;;;;;7.79;100.00;99351.47;5014311;28;20205;-83
2023/02/03 10:36:00;;;;;;;0.83;0.67;;;;;;;7.83;100.00;99358.34;5013446;28;20220;-83
2023/02/03 10:38:45;;;;;;;0.93;0.70;;;;;;;7.88;100.00;99348.47;5013128;28;20237;-83
2023/02/03 10:41:13;;;;;;;1.87;0.70;;;;;;;7.87;100.00;99337.09;5012882;28;20217;-84
2023/02/03 10:43:50;;;;;;;1.73;0.70;;;;;;;7.76;100.00;99317.38;5007837;28;20208;-80
2023/02/03 10:46:20;;;;;;;1.37;0.60;;;;;;;7.83;100.00;99316.25;5013348;28;20213;-83
2023/02/03 10:48:48;;;;;;;0.50;0.50;;;;;;;7.94;100.00;99321.91;5012656;28;20233;-83
2023/02/03 10:51:19;;;;;;;1.10;0.70;;;;;;;8.03;100.00;99325.03;5013333;28;20209;-83
2023/02/03 10:53:46;;;;;;;1.03;0.70;;;;;;;8.14;100.00;99319.34;5012749;28;20214;-83
2023/02/03 10:56:14;;;;;;;0.60;0.60;;;;;;;8.23;100.00;99316.34;5012921;28;20569;-84
2023/02/03 10:58:48;;;;;;;0.70;0.70;;;;;;;8.27;100.00;99316.16;5026864;23;20522;-81
2023/02/03 11:01:17;;;;;;;0.97;0.70;;;;;;;8.31;100.00;99315.13;4992476;28;20214;-82
2023/02/03 11:03:55;;;;;;;1.33;0.70;;;;;;;8.34;99.39;99308.88;4997678;28;20210;-82
2023/02/03 11:06:22;;;;;;;1.97;0.90;;;;;;;8.37;98.22;99306.09;5011581;28;20226;-82
2023/02/03 11:08:50;;;;;;;0.83;0.50;;;;;;;8.30;96.94;99312.53;5012967;28;20743;-81
2023/02/03 11:11:23;;;;;;;0.50;0.50;;;;;;;8.26;97.85;99317.09;5012566;28;20205;-81
2023/02/03 11:13:52;;;;;;;0.60;0.60;;;;;;;8.25;97.92;99314.50;5012096;28;20226;-81
2023/02/03 11:16:20;;;;;;;1.13;0.70;;;;;;;8.22;97.08;99291.81;5012492;28;20214;-82
2023/02/03 11:18:57;;;;;;;0.83;0.60;;;;;;;8.18;95.86;99282.28;5012623;28;20226;-82
2023/02/03 11:21:27;;;;;;;0.60;0.60;;;;;;;8.20;95.23;99264.66;5012367;28;20209;-82
2023/02/03 11:23:57;;;;;;;0.50;0.50;;;;;;;8.23;95.58;99263.69;5012528;28;20589;-81
2023/02/03 11:26:27;;;;;;;0.70;0.63;;;;;;;8.34;95.15;99279.91;5012393;28;20201;-81
2023/02/03 11:28:57;;;;;;;1.00;0.60;;;;;;;8.28;96.17;99280.16;5013069;28;20235;-83
2023/02/03 11:31:26;;;;;;;0.50;0.50;;;;;;;8.27;94.83;99271.38;5012778;28;20214;-78
2023/02/03 11:33:57;;;;;;;2.00;0.60;;;;;;;8.31;95.48;99285.28;5012799;28;20890;-79
2023/02/03 11:36:26;;;;;;;1.27;0.60;;;;;;;8.32;95.20;99276.50;5013380;28;20598;-78
2023/02/03 11:39:07;;;;;;;0.60;0.60;;;;;;;8.29;94.21;99284.50;5013041;28;20236;-79
2023/02/03 11:41:37;;;;;;;1.07;0.60;;;;;;;8.27;94.21;99271.38;5013387;28;20240;-80
2023/02/03 11:44:11;;;;;;;0.50;0.50;;;;;;;8.25;93.37;99272.38;5013219;28;20213;-78